sensor_id;sensor_type;location;lat;lon;timestamp;pressure;altitude;pressure_sealevel;temperature;humidity
11413;BME280;5762;43.256;26.960;2023-02-12T00:01:10;100601.25;;;-0.71;100.00
11413;BME280;5762;43.256;26.960;2023-02-12T00:03:38;100590.70;;;-0.68;100.00
11413;BME280;5762;43.256;26.960;2023-02-12T00:06:08;100585.30;;;-0.71;100.00
11413;BME280;5762;43.256;26.960;2023-02-12T00:08:37;100599.62;;;-0.72;100.00
11413;BME280;5762;43.256;26.960;2023-02-12T00:11:07;100594.47;;;-0.93;100.00
11413;BME280;5762;43.256;26.960;2023-02-12T00:13:36;100596.01;;;-0.88;100.00
11413;BME280;5762;43.256;26.960;2023-02-12T00:16:05;100596.52;;;-0.88;100.00
11413;BME280;5762;43.256;26.960;2023-02-12T00:18:34;100595.59;;;-1.05;100.00
11413;BME280;5762;43.256;26.960;2023-02-12T00:21:02;100592.19;;;-1.03;100.00
11413;BME280;5762;43.256;26.960;2023-02-12T00:23:31;100597.61;;;-1.00;100.00
11413;BME280;5762;43.256;26.960;2023-02-12T00:25:59;100587.18;;;-1.15;100.00
11413;BME280;5762;43.256;26.960;2023-02-12T00:28:28;100582.91;;;-0.96;100.00
11413;BME280;5762;43.256;26.960;2023-02-12T00:30:57;100585.58;;;-0.89;100.00
11413;BME280;5762;43.256;26.960;2023-02-12T00:33:26;100594.57;;;-0.90;100.00
11413;BME280;5762;43.256;26.960;2023-02-12T00:35:55;100579.66;;;-0.85;100.00
11413;BME280;5762;43.256;26.960;2023-02-12T00:38:24;100584.17;;;-0.79;100.00
11413;BME280;5762;43.256;26.960;2023-02-12T00:40:52;100589.37;;;-0.68;100.00
11413;BME280;5762;43.256;26.960;2023-02-12T00:43:21;100581.00;;;-0.58;100.00
11413;BME280;5762;43.256;26.960;2023-02-12T00:45:50;100577.73;;;-0.54;100.00
11413;BME280;5762;43.256;26.960;2023-02-12T00:48:19;100570.47;;;-0.56;100.00
11413;BME280;5762;43.256;26.960;2023-02-12T00:50:48;100575.28;;;-0.49;100.00
11413;BME280;5762;43.256;26.960;2023-02-12T00:53:18;100563.31;;;-0.42;100.00
11413;BME280;5762;43.256;26.960;2023-02-12T00:55:46;100573.20;;;-0.34;100.00
11413;BME280;5762;43.256;26.960;2023-02-12T00:58:14;100567.81;;;-0.43;100.00
11413;BME280;5762;43.256;26.960;2023-02-12T01:00:43;100554.82;;;-0.35;100.00
11413;BME280;5762;43.256;26.960;2023-02-12T01:03:12;100558.37;;;-0.32;100.00
11413;BME280;5762;43.256;26.960;2023-02-12T01:05:41;100554.82;;;-0.61;100.00
11413;BME280;5762;43.256;26.960;2023-02-12T01:08:10;100563.91;;;-0.93;100.00
11413;BME280;5762;43.256;26.960;2023-02-12T01:10:39;100563.60;;;-1.07;100.00
11413;BME280;5762;43.256;26.960;2023-02-12T01:13:12;100563.80;;;-1.09;100.00
11413;BME280;5762;43.256;26.960;2023-02-12T01:15:41;100561.31;;;-1.23;100.00
11413;BME280;5762;43.256;26.960;2023-02-12T01:18:09;100564.41;;;-1.13;100.00
11413;BME280;5762;43.256;26.960;2023-02-12T01:20:39;100580.97;;;-0.98;100.00
11413;BME280;5762;43.256;26.960;2023-02-12T01:23:07;100571.53;;;-1.20;100.00
11413;BME280;5762;43.256;26.960;2023-02-12T01:25:36;100566.82;;;-1.25;100.00
11413;BME280;5762;43.256;26.960;2023-02-12T01:28:05;100566.40;;;-1.28;100.00
11413;BME280;5762;43.256;26.960;2023-02-12T01:30:34;100566.35;;;-0.98;100.00
11413;BME280;5762;43.256;26.960;2023-02-12T01:33:03;100566.19;;;-0.70;100.00
11413;BME280;5762;43.256;26.960;2023-02-12T01:35:31;100568.84;;;-0.77;100.00
11413;BME280;5762;43.256;26.960;2023-02-12T01:38:00;100573.92;;;-0.95;100.00
11413;BME280;5762;43.256;26.960;2023-02-12T01:40:29;100578.34;;;-0.85;100.00
11413;BME280;5762;43.256;26.960;2023-02-12T01:43:01;100560.14;;;-0.48;100.00
11413;BME280;5762;43.256;26.960;2023-02-12T01:45:37;100567.81;;;-0.49;100.00
11413;BME280;5762;43.256;26.960;2023-02-12T01:48:02;100557.81;;;-0.74;100.00
11413;BME280;5762;43.256;26.960;2023-02-12T01:50:31;100545.21;;;-0.49;100.00
11413;BME280;5762;43.256;26.960;2023-02-12T01:53:00;100527.73;;;-0.06;100.00
11413;BME280;5762;43.256;26.960;2023-02-12T01:55:29;100538.41;;;0.17;100.00
11413;BME280;5762;43.256;26.960;2023-02-12T01:57:58;100538.81;;;0.36;100.00
11413;BME280;5762;43.256;26.960;2023-02-12T02:00:27;100522.78;;;0.49;100.00
11413;BME280;5762;43.256;26.960;2023-02-12T02:02:56;100533.02;;;0.52;100.00
11413;BME280;5762;43.256;26.960;2023-02-12T02:08:12;100533.28;;;0.76;100.00
11413;BME280;5762;43.256;26.960;2023-02-12T02:10:41;100533.38;;;0.78;100.00
11413;BME280;5762;43.256;26.960;2023-02-12T02:13:09;100527.70;;;0.84;100.00
11413;BME280;5762;43.256;26.960;2023-02-12T02:15:57;100517.12;;;0.86;100.00
11413;BME280;5762;43.256;26.960;2023-02-12T02:18:36;100510.91;;;0.99;100.00
11413;BME280;5762;43.256;26.960;2023-02-12T02:36:46;100533.14;;;1.11;100.00
11413;BME280;5762;43.256;26.960;2023-02-12T02:41:50;100525.36;;;1.10;100.00
11413;BME280;5762;43.256;26.960;2023-02-12T02:44:25;100527.94;;;1.07;100.00
11413;BME280;5762;43.256;26.960;2023-02-12T02:46:49;100532.37;;;1.04;100.00
11413;BME280;5762;43.256;26.960;2023-02-12T02:49:20;100537.42;;;1.03;100.00
11413;BME280;5762;43.256;26.960;2023-02-12T02:51:48;100543.62;;;1.06;100.00
11413;BME280;5762;43.256;26.960;2023-02-12T02:54:22;100544.09;;;1.03;100.00
11413;BME280;5762;43.256;26.960;2023-02-12T02:56:49;100544.95;;;0.97;100.00
11413;BME280;5762;43.256;26.960;2023-02-12T02:59:27;100537.12;;;1.02;100.00
11413;BME280;5762;43.256;26.960;2023-02-12T03:01:53;100540.52;;;1.00;100.00
11413;BME280;5762;43.256;26.960;2023-02-12T03:04:23;100543.40;;;0.98;100.00
11413;BME280;5762;43.256;26.960;2023-02-12T03:06:54;100535.92;;;0.98;100.00
11413;BME280;5762;43.256;26.960;2023-02-12T03:09:24;100539.10;;;0.97;100.00
11413;BME280;5762;43.256;26.960;2023-02-12T03:11:51;100542.80;;;0.96;100.00
11413;BME280;5762;43.256;26.960;2023-02-12T03:14:33;100544.30;;;1.02;100.00
11413;BME280;5762;43.256;26.960;2023-02-12T03:17:08;100539.19;;;1.00;100.00
11413;BME280;5762;43.256;26.960;2023-02-12T03:19:40;100548.73;;;0.98;100.00
11413;BME280;5762;43.256;26.960;2023-02-12T03:22:09;100547.22;;;0.93;100.00
11413;BME280;5762;43.256;26.960;2023-02-12T03:24:40;100549.50;;;0.90;100.00
11413;BME280;5762;43.256;26.960;2023-02-12T03:27:08;100550.31;;;0.90;100.00
11413;BME280;5762;43.256;26.960;2023-02-12T03:29:37;100552.25;;;0.92;100.00
11413;BME280;5762;43.256;26.960;2023-02-12T03:35:09;100552.55;;;0.93;100.00
11413;BME280;5762;43.256;26.960;2023-02-12T03:53:21;100539.95;;;0.91;100.00
11413;BME280;5762;43.256;26.960;2023-02-12T03:55:50;100523.45;;;0.92;100.00
11413;BME280;5762;43.256;26.960;2023-02-12T03:58:20;100536.17;;;0.90;100.00
11413;BME280;5762;43.256;26.960;2023-02-12T04:00:49;100540.38;;;0.88;100.00
11413;BME280;5762;43.256;26.960;2023-02-12T04:03:18;100541.98;;;0.96;100.00
11413;BME280;5762;43.256;26.960;2023-02-12T04:05:46;100537.30;;;0.91;100.00
11413;BME280;5762;43.256;26.960;2023-02-12T04:08:15;100528.70;;;0.89;100.00
11413;BME280;5762;43.256;26.960;2023-02-12T04:13:42;100538.33;;;0.90;100.00
11413;BME280;5762;43.256;26.960;2023-02-12T04:16:19;100540.59;;;0.87;100.00
11413;BME280;5762;43.256;26.960;2023-02-12T04:18:48;100526.77;;;0.87;100.00
11413;BME280;5762;43.256;26.960;2023-02-12T04:21:32;100538.54;;;0.89;100.00
11413;BME280;5762;43.256;26.960;2023-02-12T04:23:53;100542.96;;;0.86;100.00
11413;BME280;5762;43.256;26.960;2023-02-12T04:26:33;100544.51;;;0.84;100.00
11413;BME280;5762;43.256;26.960;2023-02-12T04:34:26;100559.04;;;0.88;100.00
11413;BME280;5762;43.256;26.960;2023-02-12T04:39:41;100571.24;;;0.87;100.00
11413;BME280;5762;43.256;26.960;2023-02-12T04:42:10;100574.72;;;0.87;100.00
11413;BME280;5762;43.256;26.960;2023-02-12T04:44:41;100578.08;;;0.92;100.00
11413;BME280;5762;43.256;26.960;2023-02-12T04:47:11;100577.48;;;0.90;100.00
11413;BME280;5762;43.256;26.960;2023-02-12T04:49:40;100573.78;;;0.91;100.00
11413;BME280;5762;43.256;26.960;2023-02-12T04:52:09;100579.72;;;0.93;100.00
11413;BME280;5762;43.256;26.960;2023-02-12T04:54:37;100577.91;;;0.87;100.00
11413;BME280;5762;43.256;26.960;2023-02-12T04:57:07;100582.50;;;0.89;100.00
11413;BME280;5762;43.256;26.960;2023-02-12T04:59:36;100587.02;;;0.88;100.00
11413;BME280;5762;43.256;26.960;2023-02-12T05:02:05;100589.17;;;0.89;100.00
11413;BME280;5762;43.256;26.960;2023-02-12T05:04:34;100587.41;;;0.92;100.00
11413;BME280;5762;43.256;26.960;2023-02-12T05:07:02;100590.68;;;0.94;100.00
11413;BME280;5762;43.256;26.960;2023-02-12T05:09:30;100585.87;;;0.93;100.00
11413;BME280;5762;43.256;26.960;2023-02-12T05:11:59;100587.50;;;0.94;100.00
11413;BME280;5762;43.256;26.960;2023-02-12T05:14:28;100574.56;;;0.98;100.00
11413;BME280;5762;43.256;26.960;2023-02-12T05:16:56;100582.13;;;1.01;100.00
11413;BME280;5762;43.256;26.960;2023-02-12T05:19:25;100580.89;;;1.04;100.00
11413;BME280;5762;43.256;26.960;2023-02-12T05:21:54;100576.95;;;1.06;100.00
11413;BME280;5762;43.256;26.960;2023-02-12T05:24:23;100590.58;;;1.07;100.00
11413;BME280;5762;43.256;26.960;2023-02-12T05:26:52;100592.52;;;1.09;100.00
11413;BME280;5762;43.256;26.960;2023-02-12T05:29:21;100599.18;;;1.09;100.00
11413;BME280;5762;43.256;26.960;2023-02-12T05:31:50;100605.59;;;1.17;100.00
11413;BME280;5762;43.256;26.960;2023-02-12T05:34:19;100603.95;;;1.16;100.00
11413;BME280;5762;43.256;26.960;2023-02-12T05:36:48;100616.64;;;1.21;100.00
11413;BME280;5762;43.256;26.960;2023-02-12T05:39:17;100598.92;;;1.17;100.00
11413;BME280;5762;43.256;26.960;2023-02-12T05:41:45;100622.19;;;1.19;100.00
11413;BME280;5762;43.256;26.960;2023-02-12T05:44:14;100617.16;;;1.20;100.00
11413;BME280;5762;43.256;26.960;2023-02-12T05:46:43;100623.09;;;1.22;100.00
11413;BME280;5762;43.256;26.960;2023-02-12T05:49:12;100611.09;;;1.22;100.00
11413;BME280;5762;43.256;26.960;2023-02-12T05:51:41;100612.13;;;1.21;100.00
11413;BME280;5762;43.256;26.960;2023-02-12T05:54:09;100631.40;;;1.23;100.00
11413;BME280;5762;43.256;26.960;2023-02-12T05:56:42;100630.67;;;1.25;100.00
11413;BME280;5762;43.256;26.960;2023-02-12T05:59:13;100640.39;;;1.29;100.00
11413;BME280;5762;43.256;26.960;2023-02-12T06:01:41;100645.83;;;1.41;100.00
11413;BME280;5762;43.256;26.960;2023-02-12T06:04:19;100657.31;;;1.41;100.00
11413;BME280;5762;43.256;26.960;2023-02-12T06:06:43;100649.26;;;1.39;100.00
11413;BME280;5762;43.256;26.960;2023-02-12T06:09:12;100664.28;;;1.42;100.00
11413;BME280;5762;43.256;26.960;2023-02-12T06:11:42;100666.61;;;1.48;100.00
11413;BME280;5762;43.256;26.960;2023-02-12T06:14:17;100671.39;;;1.55;100.00
11413;BME280;5762;43.256;26.960;2023-02-12T06:16:42;100667.17;;;1.72;100.00
11413;BME280;5762;43.256;26.960;2023-02-12T06:19:10;100679.36;;;1.86;100.00
11413;BME280;5762;43.256;26.960;2023-02-12T06:21:38;100689.68;;;1.92;100.00
11413;BME280;5762;43.256;26.960;2023-02-12T06:24:08;100692.95;;;1.94;100.00
11413;BME280;5762;43.256;26.960;2023-02-12T06:26:36;100687.20;;;2.06;100.00
11413;BME280;5762;43.256;26.960;2023-02-12T06:29:05;100693.12;;;2.08;100.00
11413;BME280;5762;43.256;26.960;2023-02-12T06:31:34;100691.00;;;2.08;100.00
11413;BME280;5762;43.256;26.960;2023-02-12T06:34:05;100699.84;;;2.26;100.00
11413;BME280;5762;43.256;26.960;2023-02-12T06:36:33;100700.47;;;2.38;100.00
11413;BME280;5762;43.256;26.960;2023-02-12T06:39:02;100703.00;;;2.42;100.00
11413;BME280;5762;43.256;26.960;2023-02-12T06:41:31;100705.81;;;2.38;100.00
11413;BME280;5762;43.256;26.960;2023-02-12T06:43:59;100704.77;;;2.39;100.00
11413;BME280;5762;43.256;26.960;2023-02-12T06:46:28;100702.01;;;2.45;100.00
11413;BME280;5762;43.256;26.960;2023-02-12T06:48:58;100720.11;;;2.43;100.00
11413;BME280;5762;43.256;26.960;2023-02-12T06:51:27;100718.12;;;2.48;100.00
11413;BME280;5762;43.256;26.960;2023-02-12T06:53:57;100721.72;;;2.69;100.00
11413;BME280;5762;43.256;26.960;2023-02-12T06:56:25;100721.20;;;2.69;100.00
11413;BME280;5762;43.256;26.960;2023-02-12T06:58:56;100713.62;;;2.76;100.00
11413;BME280;5762;43.256;26.960;2023-02-12T07:01:26;100717.77;;;2.90;100.00
11413;BME280;5762;43.256;26.960;2023-02-12T07:04:00;100719.99;;;3.02;100.00
11413;BME280;5762;43.256;26.960;2023-02-12T07:06:25;100730.55;;;3.06;100.00
11413;BME280;5762;43.256;26.960;2023-02-12T07:08:54;100741.08;;;2.83;100.00
11413;BME280;5762;43.256;26.960;2023-02-12T07:11:26;100740.48;;;2.81;100.00
11413;BME280;5762;43.256;26.960;2023-02-12T07:13:55;100733.38;;;2.75;100.00
11413;BME280;5762;43.256;26.960;2023-02-12T07:16:24;100744.50;;;2.90;100.00
11413;BME280;5762;43.256;26.960;2023-02-12T07:18:53;100756.62;;;3.11;100.00
11413;BME280;5762;43.256;26.960;2023-02-12T07:21:21;100753.71;;;2.94;100.00
11413;BME280;5762;43.256;26.960;2023-02-12T07:23:50;100749.42;;;2.75;100.00
11413;BME280;5762;43.256;26.960;2023-02-12T07:26:20;100745.24;;;2.88;100.00
11413;BME280;5762;43.256;26.960;2023-02-12T07:28:49;100752.75;;;2.97;100.00
11413;BME280;5762;43.256;26.960;2023-02-12T07:31:19;100743.91;;;3.06;100.00
11413;BME280;5762;43.256;26.960;2023-02-12T07:33:48;100742.84;;;3.16;100.00
11413;BME280;5762;43.256;26.960;2023-02-12T07:36:17;100743.51;;;3.21;100.00
11413;BME280;5762;43.256;26.960;2023-02-12T07:38:46;100743.73;;;3.28;100.00
11413;BME280;5762;43.256;26.960;2023-02-12T07:41:17;100747.36;;;3.34;100.00
11413;BME280;5762;43.256;26.960;2023-02-12T07:43:45;100745.20;;;3.33;100.00
11413;BME280;5762;43.256;26.960;2023-02-12T07:46:18;100750.63;;;3.36;100.00
11413;BME280;5762;43.256;26.960;2023-02-12T07:48:45;100754.86;;;3.44;100.00
11413;BME280;5762;43.256;26.960;2023-02-12T07:51:14;100749.91;;;3.50;100.00
11413;BME280;5762;43.256;26.960;2023-02-12T07:53:43;100754.56;;;3.43;100.00
11413;BME280;5762;43.256;26.960;2023-02-12T07:56:16;100761.41;;;3.39;100.00
11413;BME280;5762;43.256;26.960;2023-02-12T07:58:46;100756.94;;;3.42;100.00
11413;BME280;5762;43.256;26.960;2023-02-12T08:01:16;100761.58;;;3.55;100.00
11413;BME280;5762;43.256;26.960;2023-02-12T08:03:44;100764.92;;;3.51;100.00
11413;BME280;5762;43.256;26.960;2023-02-12T08:06:18;100757.87;;;3.47;100.00
11413;BME280;5762;43.256;26.960;2023-02-12T08:08:43;100760.62;;;3.50;100.00
11413;BME280;5762;43.256;26.960;2023-02-12T08:11:13;100764.33;;;3.49;100.00
11413;BME280;5762;43.256;26.960;2023-02-12T08:13:42;100763.88;;;3.61;100.00
11413;BME280;5762;43.256;26.960;2023-02-12T08:16:12;100765.64;;;3.67;100.00
11413;BME280;5762;43.256;26.960;2023-02-12T08:18:41;100778.85;;;3.80;100.00
11413;BME280;5762;43.256;26.960;2023-02-12T08:21:11;100778.37;;;3.83;100.00
11413;BME280;5762;43.256;26.960;2023-02-12T08:23:40;100776.58;;;3.65;100.00
11413;BME280;5762;43.256;26.960;2023-02-12T08:26:10;100777.09;;;3.65;100.00
11413;BME280;5762;43.256;26.960;2023-02-12T08:28:40;100779.83;;;3.77;100.00
11413;BME280;5762;43.256;26.960;2023-02-12T08:31:10;100782.34;;;4.01;100.00
11413;BME280;5762;43.256;26.960;2023-02-12T08:33:38;100785.96;;;4.19;100.00
11413;BME280;5762;43.256;26.960;2023-02-12T08:36:07;100798.99;;;4.36;100.00
11413;BME280;5762;43.256;26.960;2023-02-12T08:38:36;100798.45;;;4.25;100.00
11413;BME280;5762;43.256;26.960;2023-02-12T08:41:06;100800.53;;;4.23;100.00
11413;BME280;5762;43.256;26.960;2023-02-12T08:43:35;100806.19;;;4.12;100.00
11413;BME280;5762;43.256;26.960;2023-02-12T08:46:05;100802.55;;;4.07;100.00
11413;BME280;5762;43.256;26.960;2023-02-12T08:48:33;100806.28;;;4.06;100.00
11413;BME280;5762;43.256;26.960;2023-02-12T08:51:03;100805.98;;;4.04;100.00
11413;BME280;5762;43.256;26.960;2023-02-12T08:53:31;100812.59;;;4.11;100.00
11413;BME280;5762;43.256;26.960;2023-02-12T08:56:00;100811.02;;;4.13;100.00
11413;BME280;5762;43.256;26.960;2023-02-12T08:58:29;100816.97;;;4.15;100.00
11413;BME280;5762;43.256;26.960;2023-02-12T09:00:58;100817.36;;;4.21;100.00
11413;BME280;5762;43.256;26.960;2023-02-12T09:03:26;100814.62;;;4.18;100.00
11413;BME280;5762;43.256;26.960;2023-02-12T09:05:54;100811.67;;;4.29;100.00
11413;BME280;5762;43.256;26.960;2023-02-12T09:08:23;100818.77;;;4.44;100.00
11413;BME280;5762;43.256;26.960;2023-02-12T09:10:51;100814.38;;;4.52;100.00
11413;BME280;5762;43.256;26.960;2023-02-12T09:13:20;100812.05;;;4.56;100.00
11413;BME280;5762;43.256;26.960;2023-02-12T09:15:49;100820.52;;;4.50;100.00
11413;BME280;5762;43.256;26.960;2023-02-12T09:18:18;100817.35;;;4.53;100.00
11413;BME280;5762;43.256;26.960;2023-02-12T09:20:47;100815.38;;;4.60;100.00
11413;BME280;5762;43.256;26.960;2023-02-12T09:23:16;100811.42;;;4.63;100.00
11413;BME280;5762;43.256;26.960;2023-02-12T09:25:45;100821.92;;;4.76;100.00
11413;BME280;5762;43.256;26.960;2023-02-12T09:28:14;100823.56;;;4.77;100.00
11413;BME280;5762;43.256;26.960;2023-02-12T09:30:43;100821.75;;;4.80;100.00
11413;BME280;5762;43.256;26.960;2023-02-12T09:33:12;100827.06;;;4.78;100.00
11413;BME280;5762;43.256;26.960;2023-02-12T09:35:41;100831.59;;;4.65;100.00
11413;BME280;5762;43.256;26.960;2023-02-12T09:38:10;100832.17;;;4.67;100.00
11413;BME280;5762;43.256;26.960;2023-02-12T09:48:58;100839.75;;;4.94;100.00
11413;BME280;5762;43.256;26.960;2023-02-12T09:51:21;100845.70;;;4.96;100.00
11413;BME280;5762;43.256;26.960;2023-02-12T09:53:50;100845.41;;;4.95;100.00
11413;BME280;5762;43.256;26.960;2023-02-12T09:56:20;100849.14;;;4.94;100.00
11413;BME280;5762;43.256;26.960;2023-02-12T09:58:53;100851.94;;;4.99;100.00
11413;BME280;5762;43.256;26.960;2023-02-12T10:01:22;100855.84;;;4.94;100.00
11413;BME280;5762;43.256;26.960;2023-02-12T10:03:51;100858.05;;;4.85;100.00
11413;BME280;5762;43.256;26.960;2023-02-12T10:06:28;100857.06;;;4.89;100.00
11413;BME280;5762;43.256;26.960;2023-02-12T10:11:32;100864.06;;;4.66;100.00
11413;BME280;5762;43.256;26.960;2023-02-12T10:14:18;100857.06;;;4.65;100.00
11413;BME280;5762;43.256;26.960;2023-02-12T10:16:59;100860.53;;;4.54;100.00
11413;BME280;5762;43.256;26.960;2023-02-12T10:19:25;100857.98;;;4.59;100.00
11413;BME280;5762;43.256;26.960;2023-02-12T10:22:01;100868.19;;;4.48;100.00
11413;BME280;5762;43.256;26.960;2023-02-12T10:24:36;100852.56;;;4.45;100.00
11413;BME280;5762;43.256;26.960;2023-02-12T10:27:10;100853.94;;;4.36;100.00
11413;BME280;5762;43.256;26.960;2023-02-12T10:29:33;100851.42;;;4.32;100.00
11413;BME280;5762;43.256;26.960;2023-02-12T10:32:06;100857.46;;;4.27;100.00
11413;BME280;5762;43.256;26.960;2023-02-12T10:34:35;100859.39;;;4.29;100.00
11413;BME280;5762;43.256;26.960;2023-02-12T10:37:07;100854.81;;;4.39;100.00
11413;BME280;5762;43.256;26.960;2023-02-12T10:39:34;100857.04;;;4.42;100.00
11413;BME280;5762;43.256;26.960;2023-02-12T10:42:17;100863.67;;;4.40;100.00
11413;BME280;5762;43.256;26.960;2023-02-12T10:44:41;100867.02;;;4.44;100.00
11413;BME280;5762;43.256;26.960;2023-02-12T10:47:20;100868.77;;;4.50;100.00
11413;BME280;5762;43.256;26.960;2023-02-12T10:49:54;100868.70;;;4.48;100.00
11413;BME280;5762;43.256;26.960;2023-02-12T10:52:28;100871.69;;;4.49;100.00
11413;BME280;5762;43.256;26.960;2023-02-12T10:54:50;100877.44;;;4.55;100.00
11413;BME280;5762;43.256;26.960;2023-02-12T10:57:20;100876.39;;;4.56;100.00
11413;BME280;5762;43.256;26.960;2023-02-12T10:59:51;100879.59;;;4.55;100.00
11413;BME280;5762;43.256;26.960;2023-02-12T11:02:30;100881.10;;;4.51;100.00
11413;BME280;5762;43.256;26.960;2023-02-12T11:04:59;100883.68;;;4.46;100.00
11413;BME280;5762;43.256;26.960;2023-02-12T11:07:28;100884.14;;;4.43;100.00
11413;BME280;5762;43.256;26.960;2023-02-12T11:09:58;100887.54;;;4.50;100.00
11413;BME280;5762;43.256;26.960;2023-02-12T11:12:33;100893.12;;;4.49;100.00
11413;BME280;5762;43.256;26.960;2023-02-12T11:15:17;100889.66;;;4.51;100.00
11413;BME280;5762;43.256;26.960;2023-02-12T11:17:56;100905.00;;;4.53;100.00
11413;BME280;5762;43.256;26.960;2023-02-12T11:25:25;100897.02;;;4.44;100.00
11413;BME280;5762;43.256;26.960;2023-02-12T11:28:13;100899.66;;;4.32;100.00
11413;BME280;5762;43.256;26.960;2023-02-12T11:30:47;100895.47;;;4.36;100.00
11413;BME280;5762;43.256;26.960;2023-02-12T11:33:21;100889.00;;;4.34;100.00
11413;BME280;5762;43.256;26.960;2023-02-12T11:35:50;100893.77;;;4.32;100.00
11413;BME280;5762;43.256;26.960;2023-02-12T11:38:26;100893.19;;;4.30;100.00
11413;BME280;5762;43.256;26.960;2023-02-12T11:40:55;100892.27;;;4.36;100.00
11413;BME280;5762;43.256;26.960;2023-02-12T11:43:23;100896.49;;;4.44;100.00
11413;BME280;5762;43.256;26.960;2023-02-12T11:45:52;100886.88;;;4.46;100.00
11413;BME280;5762;43.256;26.960;2023-02-12T11:48:30;100892.31;;;4.48;100.00
11413;BME280;5762;43.256;26.960;2023-02-12T11:50:59;100891.83;;;4.51;100.00
11413;BME280;5762;43.256;26.960;2023-02-12T11:53:29;100887.47;;;4.59;100.00
11413;BME280;5762;43.256;26.960;2023-02-12T11:55:59;100631.30;;;3.05;100.00
11413;BME280;5762;43.256;26.960;2023-02-12T11:58:27;100892.77;;;4.78;100.00
11413;BME280;5762;43.256;26.960;2023-02-12T12:11:12;100885.07;;;4.81;100.00
11413;BME280;5762;43.256;26.960;2023-02-12T12:13:43;100888.67;;;4.75;100.00
11413;BME280;5762;43.256;26.960;2023-02-12T12:16:23;100890.67;;;4.80;100.00
11413;BME280;5762;43.256;26.960;2023-02-12T12:19:09;100886.22;;;4.74;100.00
11413;BME280;5762;43.256;26.960;2023-02-12T12:21:56;100887.98;;;4.80;100.00
11413;BME280;5762;43.256;26.960;2023-02-12T12:29:46;100903.03;;;4.81;100.00
11413;BME280;5762;43.256;26.960;2023-02-12T12:32:13;100900.80;;;4.78;100.00
11413;BME280;5762;43.256;26.960;2023-02-12T12:34:42;100905.06;;;4.76;100.00
11413;BME280;5762;43.256;26.960;2023-02-12T12:58:35;100927.48;;;4.40;100.00
11413;BME280;5762;43.256;26.960;2023-02-12T13:03:59;100937.47;;;4.33;100.00
11413;BME280;5762;43.256;26.960;2023-02-12T13:11:54;100942.74;;;4.40;100.00
11413;BME280;5762;43.256;26.960;2023-02-12T13:14:30;100950.33;;;4.43;100.00
11413;BME280;5762;43.256;26.960;2023-02-12T13:21:57;100968.66;;;4.36;100.00
11413;BME280;5762;43.256;26.960;2023-02-12T13:26:54;100976.41;;;4.26;100.00
11413;BME280;5762;43.256;26.960;2023-02-12T13:29:25;100988.39;;;4.24;100.00
11413;BME280;5762;43.256;26.960;2023-02-12T13:31:54;100995.09;;;4.24;100.00
11413;BME280;5762;43.256;26.960;2023-02-12T13:34:22;100993.97;;;4.31;100.00
11413;BME280;5762;43.256;26.960;2023-02-12T13:36:52;100999.70;;;4.35;100.00
11413;BME280;5762;43.256;26.960;2023-02-12T13:39:29;101008.34;;;4.37;100.00
11413;BME280;5762;43.256;26.960;2023-02-12T13:42:06;101007.22;;;4.35;100.00
11413;BME280;5762;43.256;26.960;2023-02-12T13:44:34;101014.81;;;4.29;100.00
11413;BME280;5762;43.256;26.960;2023-02-12T13:52:10;101019.06;;;4.19;100.00
11413;BME280;5762;43.256;26.960;2023-02-12T13:54:48;101021.73;;;4.19;100.00
11413;BME280;5762;43.256;26.960;2023-02-12T13:57:16;101030.89;;;4.20;100.00
11413;BME280;5762;43.256;26.960;2023-02-12T13:59:52;101041.20;;;4.14;100.00
11413;BME280;5762;43.256;26.960;2023-02-12T14:02:39;101033.91;;;4.12;100.00
11413;BME280;5762;43.256;26.960;2023-02-12T14:05:00;101041.05;;;4.09;100.00
11413;BME280;5762;43.256;26.960;2023-02-12T14:07:39;101041.34;;;4.10;100.00
11413;BME280;5762;43.256;26.960;2023-02-12T14:10:05;101049.75;;;4.14;100.00
11413;BME280;5762;43.256;26.960;2023-02-12T14:12:36;101055.33;;;4.03;100.00
11413;BME280;5762;43.256;26.960;2023-02-12T14:15:05;101053.61;;;3.99;100.00
11413;BME280;5762;43.256;26.960;2023-02-12T14:25:25;101073.48;;;4.01;100.00
11413;BME280;5762;43.256;26.960;2023-02-12T14:27:41;101072.73;;;4.03;100.00
11413;BME280;5762;43.256;26.960;2023-02-12T14:32:54;101080.92;;;3.99;100.00
11413;BME280;5762;43.256;26.960;2023-02-12T14:37:56;101083.59;;;3.99;100.00
11413;BME280;5762;43.256;26.960;2023-02-12T14:43:22;101097.59;;;4.01;100.00
11413;BME280;5762;43.256;26.960;2023-02-12T14:45:34;101088.35;;;3.97;100.00
11413;BME280;5762;43.256;26.960;2023-02-12T14:48:04;101086.03;;;3.91;100.00
11413;BME280;5762;43.256;26.960;2023-02-12T14:50:41;101093.91;;;3.86;100.00
11413;BME280;5762;43.256;26.960;2023-02-12T14:55:41;101112.63;;;3.68;100.00
11413;BME280;5762;43.256;26.960;2023-02-12T14:58:15;101108.75;;;3.64;100.00
11413;BME280;5762;43.256;26.960;2023-02-12T15:00:45;101111.09;;;3.54;100.00
11413;BME280;5762;43.256;26.960;2023-02-12T15:03:26;101115.92;;;3.54;100.00
11413;BME280;5762;43.256;26.960;2023-02-12T15:05:53;101118.30;;;3.53;100.00
11413;BME280;5762;43.256;26.960;2023-02-12T15:08:34;101126.20;;;3.57;100.00
11413;BME280;5762;43.256;26.960;2023-02-12T15:11:02;101133.23;;;3.52;100.00
11413;BME280;5762;43.256;26.960;2023-02-12T15:13:33;101137.08;;;3.47;100.00
11413;BME280;5762;43.256;26.960;2023-02-12T15:23:44;101143.22;;;3.22;100.00
11413;BME280;5762;43.256;26.960;2023-02-12T15:26:19;101153.74;;;3.17;100.00
11413;BME280;5762;43.256;26.960;2023-02-12T15:28:49;101155.72;;;3.13;100.00
11413;BME280;5762;43.256;26.960;2023-02-12T15:31:19;101167.23;;;3.13;100.00
11413;BME280;5762;43.256;26.960;2023-02-12T15:33:48;101172.22;;;3.10;100.00